• Join FlightAware (Why Join?)
  • Login
  • US Flag 
12:03AM EDT


 

Airport Tracker/Info


-or-


 

Live Flight TrackerFlight Track Log ✈ N6198F ✈ 05-Oct-2013 ✈ KHSV - KGAD

Flight Track Log - Related Links

Times and Time Zones

All times are in EDT time to prevent confusion due to time zone crossing. See the N6198F flight status page for this flight to view local times or setup timezone preferences in your user account.

Time Position Orientation Groundspeed Altitude Reporting Facility
EDT Latitude Longitude Course Direction KTS MPH feet Rate Location/Type
02:08PM 34.5026 -86.6322 139° Southeast  Level FlightAware Approximate
02:09PM 34.4801 -86.6084 139° Southeast  Level FlightAware Approximate
02:10PM 34.4577 -86.5847 139° Southeast  Level FlightAware Approximate
02:11PM 34.4352 -86.5610 139° Southeast  Level FlightAware Approximate
02:12PM 34.4128 -86.5372 139° Southeast  Level FlightAware Approximate
02:13PM 34.3903 -86.5135 139° Southeast  Level FlightAware Approximate
02:14PM 34.3675 -86.4902 140° Southeast  Level Estimated
02:15PM 34.3448 -86.4669 140° Southeast  Level FlightAware Approximate
02:16PM 34.3220 -86.4436 140° Southeast  Level FlightAware Approximate
02:17PM 34.2993 -86.4204 140° Southeast  Level FlightAware Approximate
02:18PM 34.2765 -86.3971 140° Southeast  Level FlightAware Approximate
02:19PM 34.2537 -86.3739 140° Southeast  Level FlightAware Approximate
02:20PM 34.2309 -86.3506 140° Southeast  Level FlightAware Approximate
02:21PM 34.2082 -86.3274 140° Southeast  Level FlightAware Approximate
02:22PM 34.1854 -86.3042 140° Southeast  Level FlightAware Approximate
02:23PM 34.1626 -86.2811 140° Southeast  Level Estimated
02:24PM 34.1398 -86.2579 140° Southeast  Level FlightAware Approximate
02:25PM 34.1169 -86.2348 140° Southeast  Level Estimated
02:26PM 34.0941 -86.2117 140° Southeast  Level FlightAware Approximate
02:27PM 34.0712 -86.1886 140° Southeast  Level Estimated
02:28PM 34.0484 -86.1655 140° Southeast  Level Estimated
02:29PM 34.0255 -86.1424 140° Southeast  Level Estimated
02:30PM 34.0027 -86.1194 140° Southeast  Level Estimated
02:31PM 33.9798 -86.0963 140° Southeast  Level Estimated
02:32PM 33.9726 -86.0891 140° Southeast  Level Estimated
02:33PM 33.9726 -86.0891 140° Southeast  Level Estimated
02:34PM 33.9726 -86.0891 140° Southeast  Level Estimated
02:35PM 33.9726 -86.0891 140° Southeast  Level Estimated
02:36PM 33.9726 -86.0891 140° Southeast  Level Estimated
02:37PM 33.9726 -86.0891 140° Southeast  Level Estimated
02:38PM 33.9726 -86.0891 140° Southeast  Level Estimated
02:39PM 33.9726 -86.0891 140° Southeast  Level Estimated
02:40PM 33.9726 -86.0891 140° Southeast  Level Estimated
02:41PM 33.9726 -86.0891 140° Southeast  Level Estimated
02:42PM 33.9726 -86.0891 140° Southeast  Level Estimated
02:43PM 33.9726 -86.0891 140° Southeast  Level Estimated
02:44PM 33.9726 -86.0891 140° Southeast  Level Estimated
02:45PM 33.9726 -86.0891 140° Southeast  Level Estimated
02:46PM 33.9726 -86.0891 140° Southeast  Level Estimated
02:47PM 33.9726 -86.0891 140° Southeast  Level Estimated